HKE558 VHHH-VVDN
Flight info
| Callsign | HKE558 |
|---|---|
| Flight time | 1h 25m |
| Altitude | 36000 |
| Route | PECAN V11 IDOSI P901 IKELA/K0865F360 A1 KANGU |
| Aircraft | A21N/M-SDE3GHIJ3J7M3P2RWYZ/LB2D1 |
Departure
| Time | 2026-04-23 00:11 |
|---|---|
| Airport | Hong Kong International Airport (VHHH) |
Arrival
| Time | 2026-04-23 01:36 |
|---|---|
| Airport | Da Nang International Airport (VVDN) |
| Time | Latitude | Longitude | Altitude | Speed | Heading |
|---|---|---|---|---|---|
| 2026-04-22 23:26 | 22.31164 | 113.91630 | 42 ft | 0 kts | 71° |
| 2026-04-22 23:58 | 22.31163 | 113.91627 | 42 ft | 3 kts | 71° |
| 2026-04-22 23:59 | 22.31155 | 113.91600 | 40 ft | 4 kts | 71° |
| 2026-04-22 23:59 | 22.31147 | 113.91575 | 40 ft | 4 kts | 65° |
| 2026-04-22 23:59 | 22.31131 | 113.91553 | 38 ft | 4 kts | 33° |
| 2026-04-22 23:59 | 22.31107 | 113.91543 | 40 ft | 4 kts | 6° |
| 2026-04-23 00:00 | 22.31054 | 113.91550 | 41 ft | 4 kts | 342° |
| 2026-04-23 00:00 | 22.31037 | 113.91556 | 41 ft | 4 kts | 339° |
| 2026-04-23 00:00 | 22.31004 | 113.91571 | 40 ft | 4 kts | 339° |
| 2026-04-23 00:01 | 22.30984 | 113.91579 | 41 ft | 4 kts | 341° |
| 2026-04-23 00:01 | 22.30972 | 113.91583 | 42 ft | 1 kts | 341° |
| 2026-04-23 00:03 | 22.30981 | 113.91580 | 42 ft | 3 kts | 340° |
| 2026-04-23 00:04 | 22.31008 | 113.91569 | 40 ft | 6 kts | 335° |
| 2026-04-23 00:04 | 22.31024 | 113.91520 | 42 ft | 9 kts | 260° |
| 2026-04-23 00:04 | 22.30976 | 113.91481 | 42 ft | 11 kts | 168° |
| 2026-04-23 00:04 | 22.30897 | 113.91511 | 42 ft | 13 kts | 161° |
| 2026-04-23 00:05 | 22.30805 | 113.91545 | 42 ft | 15 kts | 161° |
| 2026-04-23 00:05 | 22.30700 | 113.91584 | 42 ft | 17 kts | 161° |
| 2026-04-23 00:05 | 22.30584 | 113.91628 | 42 ft | 19 kts | 160° |
| 2026-04-23 00:05 | 22.30490 | 113.91664 | 42 ft | 13 kts | 161° |
| 2026-04-23 00:06 | 22.30431 | 113.91710 | 43 ft | 12 kts | 97° |
| 2026-04-23 00:06 | 22.30453 | 113.91803 | 40 ft | 14 kts | 72° |
| 2026-04-23 00:06 | 22.30487 | 113.91906 | 40 ft | 16 kts | 69° |
| 2026-04-23 00:06 | 22.30524 | 113.92025 | 41 ft | 18 kts | 73° |
| 2026-04-23 00:07 | 22.30565 | 113.92156 | 43 ft | 19 kts | 70° |
| 2026-04-23 00:07 | 22.30611 | 113.92296 | 43 ft | 18 kts | 71° |
| 2026-04-23 00:07 | 22.30646 | 113.92404 | 43 ft | 16 kts | 71° |
| 2026-04-23 00:07 | 22.30685 | 113.92524 | 43 ft | 18 kts | 70° |
| 2026-04-23 00:08 | 22.30713 | 113.92609 | 42 ft | 19 kts | 71° |
| 2026-04-23 00:08 | 22.30758 | 113.92746 | 42 ft | 20 kts | 71° |
| 2026-04-23 00:08 | 22.30822 | 113.92947 | 42 ft | 22 kts | 71° |
| 2026-04-23 00:08 | 22.30861 | 113.93070 | 42 ft | 17 kts | 71° |
| 2026-04-23 00:09 | 22.30890 | 113.93159 | 42 ft | 9 kts | 73° |
| 2026-04-23 00:09 | 22.30860 | 113.93221 | 42 ft | 11 kts | 149° |
| 2026-04-23 00:09 | 22.30780 | 113.93249 | 41 ft | 11 kts | 163° |
| 2026-04-23 00:09 | 22.30719 | 113.93203 | 40 ft | 13 kts | 253° |
| 2026-04-23 00:10 | 22.30699 | 113.93139 | 40 ft | 14 kts | 251° |
| 2026-04-23 00:10 | 22.30616 | 113.92878 | 39 ft | 72 kts | 250° |
| 2026-04-23 00:10 | 22.30375 | 113.92138 | 42 ft | 135 kts | 251° |
| 2026-04-23 00:10 | 22.30017 | 113.91032 | 70 ft | 178 kts | 249° |
| 2026-04-23 00:11 | 22.29627 | 113.89793 | 775 ft | 171 kts | 249° |
| 2026-04-23 00:11 | 22.29234 | 113.88571 | 1392 ft | 178 kts | 249° |
| 2026-04-23 00:11 | 22.28781 | 113.87266 | 1949 ft | 193 kts | 248° |
| 2026-04-23 00:11 | 22.28220 | 113.85867 | 2481 ft | 218 kts | 240° |
| 2026-04-23 00:12 | 22.27322 | 113.84444 | 3134 ft | 235 kts | 234° |
| 2026-04-23 00:12 | 22.26359 | 113.82988 | 4028 ft | 240 kts | 233° |
| 2026-04-23 00:12 | 22.25176 | 113.81737 | 4943 ft | 245 kts | 212° |
| 2026-04-23 00:12 | 22.23549 | 113.81166 | 5870 ft | 250 kts | 188° |
| 2026-04-23 00:13 | 22.21795 | 113.81097 | 6788 ft | 254 kts | 182° |
| 2026-04-23 00:13 | 22.20032 | 113.81330 | 7640 ft | 260 kts | 165° |
| 2026-04-23 00:13 | 22.18462 | 113.82349 | 8483 ft | 269 kts | 140° |
| 2026-04-23 00:13 | 22.17185 | 113.83860 | 9332 ft | 274 kts | 134° |
| 2026-04-23 00:14 | 22.16031 | 113.85515 | 10117 ft | 281 kts | 122° |
| 2026-04-23 00:14 | 22.15244 | 113.87446 | 10866 ft | 287 kts | 114° |
| 2026-04-23 00:14 | 22.14519 | 113.89495 | 11624 ft | 291 kts | 114° |
| 2026-04-23 00:14 | 22.13810 | 113.91533 | 12368 ft | 296 kts | 110° |
| 2026-04-23 00:15 | 22.13427 | 113.93755 | 12953 ft | 310 kts | 97° |
| 2026-04-23 00:15 | 22.13237 | 113.96139 | 13315 ft | 329 kts | 96° |
| 2026-04-23 00:15 | 22.13051 | 113.98685 | 13645 ft | 350 kts | 96° |
| 2026-04-23 00:15 | 22.12830 | 114.01381 | 13913 ft | 369 kts | 96° |
| 2026-04-23 00:16 | 22.12584 | 114.04202 | 14179 ft | 387 kts | 96° |
| 2026-04-23 00:16 | 22.12236 | 114.07140 | 14426 ft | 403 kts | 101° |
| 2026-04-23 00:16 | 22.11734 | 114.10177 | 14658 ft | 418 kts | 102° |
| 2026-04-23 00:16 | 22.11143 | 114.13282 | 14998 ft | 426 kts | 107° |
| 2026-04-23 00:17 | 22.10022 | 114.16203 | 15476 ft | 427 kts | 122° |
| 2026-04-23 00:17 | 22.08182 | 114.18703 | 15967 ft | 425 kts | 140° |
| 2026-04-23 00:17 | 22.05775 | 114.20526 | 16453 ft | 422 kts | 156° |
| 2026-04-23 00:17 | 22.03009 | 114.21548 | 16911 ft | 419 kts | 173° |
| 2026-04-23 00:18 | 22.00115 | 114.21746 | 17382 ft | 417 kts | 185° |
| 2026-04-23 00:18 | 21.97245 | 114.21630 | 17861 ft | 420 kts | 186° |
| 2026-04-23 00:18 | 21.94308 | 114.21508 | 18305 ft | 424 kts | 185° |
| 2026-04-23 00:18 | 21.91340 | 114.21411 | 18706 ft | 427 kts | 185° |
| 2026-04-23 00:19 | 21.88384 | 114.21113 | 19112 ft | 426 kts | 193° |
| 2026-04-23 00:19 | 21.85538 | 114.20245 | 19511 ft | 424 kts | 205° |
| 2026-04-23 00:19 | 21.82901 | 114.18907 | 19931 ft | 424 kts | 210° |
| 2026-04-23 00:19 | 21.80238 | 114.17427 | 20365 ft | 426 kts | 211° |
| 2026-04-23 00:20 | 21.77627 | 114.15976 | 20796 ft | 429 kts | 210° |
| 2026-04-23 00:20 | 21.74959 | 114.14511 | 21252 ft | 432 kts | 210° |
| 2026-04-23 00:20 | 21.72252 | 114.13035 | 21704 ft | 435 kts | 210° |
| 2026-04-23 00:20 | 21.69547 | 114.11564 | 22174 ft | 437 kts | 210° |
| 2026-04-23 00:21 | 21.66820 | 114.10083 | 22620 ft | 440 kts | 210° |
| 2026-04-23 00:21 | 21.63992 | 114.08760 | 23036 ft | 447 kts | 202° |
| 2026-04-23 00:21 | 21.61007 | 114.07880 | 23432 ft | 452 kts | 198° |
| 2026-04-23 00:21 | 21.57936 | 114.07092 | 23758 ft | 455 kts | 197° |
| 2026-04-23 00:22 | 21.54843 | 114.06310 | 24077 ft | 457 kts | 197° |
| 2026-04-23 00:22 | 21.51738 | 114.05517 | 24407 ft | 459 kts | 197° |
| 2026-04-23 00:22 | 21.48622 | 114.04714 | 24732 ft | 461 kts | 197° |
| 2026-04-23 00:22 | 21.45499 | 114.03912 | 25055 ft | 463 kts | 197° |
| 2026-04-23 00:23 | 21.42292 | 114.03373 | 25366 ft | 469 kts | 189° |
| 2026-04-23 00:23 | 21.39020 | 114.03134 | 25681 ft | 472 kts | 187° |
| 2026-04-23 00:23 | 21.35730 | 114.02926 | 25973 ft | 474 kts | 187° |
| 2026-04-23 00:23 | 21.32470 | 114.02718 | 26286 ft | 475 kts | 187° |
| 2026-04-23 00:24 | 21.29158 | 114.02502 | 26687 ft | 474 kts | 187° |
| 2026-04-23 00:24 | 21.25873 | 114.02284 | 27077 ft | 473 kts | 187° |
| 2026-04-23 00:24 | 21.22581 | 114.02065 | 27473 ft | 472 kts | 187° |
| 2026-04-23 00:24 | 21.19310 | 114.01846 | 27867 ft | 471 kts | 187° |
| 2026-04-23 00:25 | 21.16034 | 114.01628 | 28258 ft | 470 kts | 187° |
| 2026-04-23 00:25 | 21.12777 | 114.01411 | 28664 ft | 469 kts | 187° |
| 2026-04-23 00:25 | 21.09558 | 114.01195 | 29061 ft | 468 kts | 187° |
| 2026-04-23 00:25 | 21.06304 | 114.00977 | 29470 ft | 467 kts | 187° |
| 2026-04-23 00:26 | 21.03068 | 114.00761 | 29880 ft | 466 kts | 187° |
| 2026-04-23 00:26 | 20.99827 | 114.00546 | 30225 ft | 466 kts | 187° |
| 2026-04-23 00:26 | 20.96614 | 114.00182 | 30526 ft | 462 kts | 194° |
| 2026-04-23 00:26 | 20.93536 | 113.99270 | 30842 ft | 456 kts | 205° |
| 2026-04-23 00:27 | 20.90722 | 113.97759 | 31141 ft | 451 kts | 216° |
| 2026-04-23 00:27 | 20.88165 | 113.95822 | 31471 ft | 450 kts | 219° |
| 2026-04-23 00:27 | 20.85668 | 113.93805 | 31821 ft | 448 kts | 220° |
| 2026-04-23 00:27 | 20.83206 | 113.91818 | 32147 ft | 449 kts | 220° |
| 2026-04-23 00:28 | 20.80715 | 113.89832 | 32501 ft | 448 kts | 220° |
| 2026-04-23 00:28 | 20.78215 | 113.87847 | 32886 ft | 446 kts | 220° |
| 2026-04-23 00:28 | 20.75709 | 113.85878 | 33225 ft | 446 kts | 219° |
| 2026-04-23 00:28 | 20.73201 | 113.83920 | 33556 ft | 447 kts | 219° |
| 2026-04-23 00:29 | 20.70703 | 113.81963 | 33898 ft | 446 kts | 219° |
| 2026-04-23 00:29 | 20.68197 | 113.80000 | 34242 ft | 444 kts | 219° |
| 2026-04-23 00:29 | 20.65716 | 113.78048 | 34541 ft | 441 kts | 220° |
| 2026-04-23 00:29 | 20.63273 | 113.76119 | 34754 ft | 442 kts | 220° |
| 2026-04-23 00:30 | 20.60809 | 113.74180 | 34990 ft | 440 kts | 220° |
| 2026-04-23 00:30 | 20.58341 | 113.72244 | 35228 ft | 441 kts | 220° |
| 2026-04-23 00:30 | 20.55867 | 113.70302 | 35507 ft | 440 kts | 220° |
| 2026-04-23 00:30 | 20.53397 | 113.68371 | 35761 ft | 438 kts | 220° |
| 2026-04-23 00:31 | 20.50930 | 113.66440 | 35907 ft | 440 kts | 220° |
| 2026-04-23 00:31 | 20.45996 | 113.62586 | 35912 ft | 438 kts | 220° |
| 2026-04-23 00:32 | 20.41090 | 113.58736 | 35891 ft | 438 kts | 220° |
| 2026-04-23 00:32 | 20.36169 | 113.54885 | 35890 ft | 438 kts | 220° |
| 2026-04-23 00:33 | 20.31246 | 113.51032 | 35884 ft | 440 kts | 220° |
| 2026-04-23 00:33 | 20.26320 | 113.47183 | 35881 ft | 438 kts | 219° |
| 2026-04-23 00:34 | 20.21430 | 113.43367 | 35883 ft | 438 kts | 220° |
| 2026-04-23 00:34 | 20.16510 | 113.39532 | 35882 ft | 439 kts | 219° |
| 2026-04-23 00:35 | 20.11576 | 113.35688 | 35888 ft | 439 kts | 219° |
| 2026-04-23 00:35 | 20.06641 | 113.31852 | 35886 ft | 439 kts | 219° |
| 2026-04-23 00:36 | 20.01694 | 113.28020 | 35888 ft | 439 kts | 219° |
| 2026-04-23 00:36 | 19.96766 | 113.24176 | 35888 ft | 439 kts | 219° |
| 2026-04-23 00:37 | 19.91854 | 113.20355 | 35884 ft | 439 kts | 219° |
| 2026-04-23 00:37 | 19.86910 | 113.16520 | 35882 ft | 439 kts | 219° |
| 2026-04-23 00:38 | 19.81964 | 113.12700 | 35887 ft | 439 kts | 219° |
| 2026-04-23 00:38 | 19.77022 | 113.08873 | 35887 ft | 440 kts | 219° |
| 2026-04-23 00:39 | 19.72081 | 113.05035 | 35887 ft | 440 kts | 219° |
| 2026-04-23 00:39 | 19.67137 | 113.01202 | 35889 ft | 440 kts | 219° |
| 2026-04-23 00:40 | 19.62208 | 112.97392 | 35886 ft | 440 kts | 219° |
| 2026-04-23 00:40 | 19.57249 | 112.93563 | 35884 ft | 441 kts | 219° |
| 2026-04-23 00:41 | 19.52276 | 112.89744 | 35885 ft | 441 kts | 219° |
| 2026-04-23 00:41 | 19.47311 | 112.85913 | 35885 ft | 441 kts | 219° |
| 2026-04-23 00:42 | 19.42370 | 112.82093 | 35889 ft | 441 kts | 219° |
| 2026-04-23 00:42 | 19.37402 | 112.78262 | 35887 ft | 441 kts | 219° |
| 2026-04-23 00:43 | 19.32430 | 112.74437 | 35883 ft | 442 kts | 219° |
| 2026-04-23 00:43 | 19.27435 | 112.70641 | 35886 ft | 442 kts | 218° |
| 2026-04-23 00:44 | 19.22411 | 112.66862 | 35884 ft | 443 kts | 218° |
| 2026-04-23 00:44 | 19.17387 | 112.63082 | 35882 ft | 443 kts | 218° |
| 2026-04-23 00:45 | 19.12386 | 112.59319 | 35882 ft | 443 kts | 218° |
| 2026-04-23 00:45 | 19.07351 | 112.55532 | 35884 ft | 444 kts | 218° |
| 2026-04-23 00:46 | 19.02303 | 112.51753 | 35890 ft | 444 kts | 218° |
| 2026-04-23 00:46 | 18.97291 | 112.47973 | 35871 ft | 445 kts | 218° |
| 2026-04-23 00:47 | 18.92260 | 112.44169 | 35883 ft | 445 kts | 218° |
| 2026-04-23 00:47 | 18.87214 | 112.40361 | 35878 ft | 445 kts | 218° |
| 2026-04-23 00:48 | 18.82172 | 112.36563 | 35882 ft | 445 kts | 218° |
| 2026-04-23 00:48 | 18.77115 | 112.32751 | 35880 ft | 446 kts | 218° |
| 2026-04-23 00:49 | 18.72098 | 112.28973 | 35882 ft | 446 kts | 218° |
| 2026-04-23 00:49 | 18.67104 | 112.25090 | 35871 ft | 444 kts | 224° |
| 2026-04-23 00:49 | 18.65013 | 112.22723 | 35880 ft | 440 kts | 235° |
| 2026-04-23 00:50 | 18.63272 | 112.20074 | 35883 ft | 439 kts | 239° |
| 2026-04-23 00:50 | 18.59929 | 112.14677 | 35879 ft | 439 kts | 239° |
| 2026-04-23 00:51 | 18.56545 | 112.09303 | 35880 ft | 440 kts | 238° |
| 2026-04-23 00:51 | 18.53167 | 112.03965 | 35874 ft | 440 kts | 238° |
| 2026-04-23 00:52 | 18.49777 | 111.98604 | 35878 ft | 440 kts | 238° |
| 2026-04-23 00:52 | 18.46375 | 111.93236 | 35875 ft | 440 kts | 238° |
| 2026-04-23 00:53 | 18.42976 | 111.87872 | 35876 ft | 440 kts | 238° |
| 2026-04-23 00:53 | 18.39566 | 111.82510 | 35874 ft | 441 kts | 238° |
| 2026-04-23 00:54 | 18.36154 | 111.77135 | 35872 ft | 441 kts | 238° |
| 2026-04-23 00:54 | 18.32741 | 111.71773 | 35869 ft | 441 kts | 238° |
| 2026-04-23 00:55 | 18.29329 | 111.66408 | 35872 ft | 441 kts | 238° |
| 2026-04-23 00:55 | 18.25904 | 111.61052 | 35874 ft | 441 kts | 238° |
| 2026-04-23 00:56 | 18.22479 | 111.55687 | 35874 ft | 442 kts | 238° |
| 2026-04-23 00:56 | 18.19088 | 111.50349 | 35872 ft | 442 kts | 238° |
| 2026-04-23 00:57 | 18.15656 | 111.44974 | 35871 ft | 442 kts | 238° |
| 2026-04-23 00:57 | 18.12224 | 111.39603 | 35873 ft | 442 kts | 238° |
| 2026-04-23 00:58 | 18.08787 | 111.34221 | 35873 ft | 443 kts | 238° |
| 2026-04-23 00:58 | 18.05370 | 111.28890 | 35873 ft | 443 kts | 238° |
| 2026-04-23 00:59 | 18.01930 | 111.23515 | 35872 ft | 443 kts | 238° |
| 2026-04-23 00:59 | 17.98489 | 111.18149 | 35872 ft | 443 kts | 238° |
| 2026-04-23 01:00 | 17.95626 | 111.13693 | 35876 ft | 443 kts | 238° |
| 2026-04-23 01:00 | 17.91589 | 111.07412 | 35875 ft | 443 kts | 238° |
| 2026-04-23 01:01 | 17.88721 | 111.02950 | 35878 ft | 444 kts | 238° |
| 2026-04-23 01:01 | 17.85266 | 110.97570 | 35876 ft | 444 kts | 238° |
| 2026-04-23 01:02 | 17.81798 | 110.92186 | 35876 ft | 445 kts | 238° |
| 2026-04-23 01:02 | 17.78331 | 110.86804 | 35876 ft | 445 kts | 238° |
| 2026-04-23 01:03 | 17.74863 | 110.81416 | 35877 ft | 446 kts | 238° |
| 2026-04-23 01:03 | 17.71395 | 110.76060 | 35876 ft | 446 kts | 238° |
| 2026-04-23 01:04 | 17.67920 | 110.70671 | 35870 ft | 446 kts | 238° |
| 2026-04-23 01:04 | 17.62693 | 110.62579 | 35874 ft | 447 kts | 238° |
| 2026-04-23 01:05 | 17.59204 | 110.57185 | 35875 ft | 447 kts | 238° |
| 2026-04-23 01:05 | 17.55731 | 110.51821 | 35870 ft | 448 kts | 237° |
| 2026-04-23 01:06 | 17.52224 | 110.46426 | 35868 ft | 448 kts | 237° |
| 2026-04-23 01:06 | 17.48722 | 110.41030 | 35868 ft | 448 kts | 237° |
| 2026-04-23 01:07 | 17.45210 | 110.35619 | 35868 ft | 448 kts | 237° |
| 2026-04-23 01:07 | 17.41698 | 110.30209 | 35868 ft | 449 kts | 237° |
| 2026-04-23 01:08 | 17.38216 | 110.24772 | 35865 ft | 449 kts | 238° |
| 2026-04-23 01:08 | 17.34760 | 110.19386 | 35869 ft | 449 kts | 238° |
| 2026-04-23 01:09 | 17.31280 | 110.13948 | 35865 ft | 449 kts | 238° |
| 2026-04-23 01:09 | 17.27792 | 110.08518 | 35864 ft | 450 kts | 238° |
| 2026-04-23 01:10 | 17.24281 | 110.03079 | 35861 ft | 450 kts | 238° |
| 2026-04-23 01:10 | 17.20788 | 109.97642 | 35861 ft | 451 kts | 238° |
| 2026-04-23 01:11 | 17.17283 | 109.92194 | 35859 ft | 451 kts | 238° |
| 2026-04-23 01:11 | 17.13799 | 109.86779 | 35861 ft | 451 kts | 238° |
| 2026-04-23 01:12 | 17.10304 | 109.81326 | 35862 ft | 451 kts | 238° |
| 2026-04-23 01:12 | 17.06788 | 109.75883 | 35861 ft | 452 kts | 238° |
| 2026-04-23 01:13 | 17.03268 | 109.70438 | 35859 ft | 452 kts | 238° |
| 2026-04-23 01:13 | 16.99753 | 109.64989 | 35852 ft | 452 kts | 238° |
| 2026-04-23 01:14 | 16.96261 | 109.59568 | 35855 ft | 452 kts | 238° |
| 2026-04-23 01:14 | 16.92753 | 109.54116 | 35852 ft | 452 kts | 238° |
| 2026-04-23 01:15 | 16.89262 | 109.48691 | 35596 ft | 447 kts | 238° |
| 2026-04-23 01:15 | 16.87512 | 109.45984 | 35320 ft | 451 kts | 237° |
| 2026-04-23 01:15 | 16.85747 | 109.43270 | 35077 ft | 453 kts | 238° |
| 2026-04-23 01:16 | 16.83982 | 109.40545 | 34837 ft | 454 kts | 238° |
| 2026-04-23 01:16 | 16.82207 | 109.37819 | 34604 ft | 455 kts | 237° |
| 2026-04-23 01:16 | 16.80420 | 109.35085 | 34379 ft | 456 kts | 237° |
| 2026-04-23 01:16 | 16.78629 | 109.32345 | 34153 ft | 457 kts | 237° |
| 2026-04-23 01:17 | 16.76827 | 109.29598 | 33799 ft | 456 kts | 237° |
| 2026-04-23 01:17 | 16.75045 | 109.26867 | 33106 ft | 456 kts | 237° |
| 2026-04-23 01:17 | 16.73252 | 109.24123 | 32362 ft | 457 kts | 237° |
| 2026-04-23 01:17 | 16.71482 | 109.21411 | 31605 ft | 457 kts | 237° |
| 2026-04-23 01:18 | 16.69689 | 109.18666 | 30848 ft | 457 kts | 237° |
| 2026-04-23 01:18 | 16.67890 | 109.15926 | 30107 ft | 457 kts | 236° |
| 2026-04-23 01:18 | 16.66093 | 109.13190 | 29202 ft | 458 kts | 236° |
| 2026-04-23 01:18 | 16.64281 | 109.10440 | 28280 ft | 461 kts | 236° |
| 2026-04-23 01:19 | 16.62458 | 109.07670 | 27392 ft | 464 kts | 236° |
| 2026-04-23 01:19 | 16.60630 | 109.04881 | 26529 ft | 466 kts | 236° |
| 2026-04-23 01:19 | 16.58798 | 109.02086 | 25733 ft | 466 kts | 236° |
| 2026-04-23 01:19 | 16.56975 | 108.99299 | 24993 ft | 465 kts | 236° |
| 2026-04-23 01:20 | 16.55148 | 108.96518 | 24251 ft | 463 kts | 236° |
| 2026-04-23 01:20 | 16.53336 | 108.93759 | 23527 ft | 459 kts | 236° |
| 2026-04-23 01:20 | 16.51558 | 108.91049 | 22711 ft | 455 kts | 236° |
| 2026-04-23 01:20 | 16.49781 | 108.88343 | 21905 ft | 450 kts | 236° |
| 2026-04-23 01:21 | 16.48019 | 108.85665 | 21113 ft | 445 kts | 236° |
| 2026-04-23 01:21 | 16.46272 | 108.83009 | 20357 ft | 440 kts | 236° |
| 2026-04-23 01:21 | 16.44551 | 108.80384 | 19624 ft | 435 kts | 236° |
| 2026-04-23 01:21 | 16.42851 | 108.77799 | 18934 ft | 430 kts | 236° |
| 2026-04-23 01:22 | 16.41190 | 108.75273 | 18281 ft | 424 kts | 236° |
| 2026-04-23 01:22 | 16.39527 | 108.72754 | 17576 ft | 419 kts | 236° |
| 2026-04-23 01:22 | 16.37886 | 108.70272 | 16857 ft | 413 kts | 236° |
| 2026-04-23 01:22 | 16.36257 | 108.67821 | 16180 ft | 407 kts | 236° |
| 2026-04-23 01:23 | 16.34699 | 108.65377 | 15563 ft | 403 kts | 238° |
| 2026-04-23 01:23 | 16.33206 | 108.62913 | 14951 ft | 403 kts | 238° |
| 2026-04-23 01:23 | 16.31709 | 108.60440 | 14341 ft | 403 kts | 238° |
| 2026-04-23 01:23 | 16.30204 | 108.57970 | 13724 ft | 404 kts | 238° |
| 2026-04-23 01:24 | 16.28709 | 108.55521 | 13056 ft | 398 kts | 238° |
| 2026-04-23 01:24 | 16.27131 | 108.53183 | 12424 ft | 392 kts | 229° |
| 2026-04-23 01:24 | 16.25074 | 108.51429 | 11986 ft | 386 kts | 210° |
| 2026-04-23 01:24 | 16.22950 | 108.50539 | 11805 ft | 376 kts | 194° |
| 2026-04-23 01:25 | 16.20408 | 108.50314 | 11621 ft | 360 kts | 176° |
| 2026-04-23 01:25 | 16.17960 | 108.50530 | 11435 ft | 345 kts | 175° |
| 2026-04-23 01:25 | 16.15599 | 108.50716 | 11285 ft | 332 kts | 176° |
| 2026-04-23 01:25 | 16.13333 | 108.50829 | 11135 ft | 319 kts | 178° |
| 2026-04-23 01:26 | 16.11151 | 108.50900 | 10995 ft | 307 kts | 178° |
| 2026-04-23 01:26 | 16.09039 | 108.50951 | 10747 ft | 300 kts | 178° |
| 2026-04-23 01:26 | 16.06964 | 108.50992 | 10396 ft | 297 kts | 179° |
| 2026-04-23 01:26 | 16.04928 | 108.51029 | 10032 ft | 295 kts | 178° |
| 2026-04-23 01:27 | 16.02876 | 108.51064 | 9677 ft | 293 kts | 179° |
| 2026-04-23 01:27 | 16.00841 | 108.51095 | 9271 ft | 292 kts | 179° |
| 2026-04-23 01:27 | 15.98811 | 108.51127 | 8868 ft | 290 kts | 179° |
| 2026-04-23 01:27 | 15.96798 | 108.51159 | 8479 ft | 289 kts | 179° |
| 2026-04-23 01:28 | 15.94792 | 108.51187 | 8102 ft | 287 kts | 180° |
| 2026-04-23 01:28 | 15.92833 | 108.50894 | 7701 ft | 286 kts | 200° |
| 2026-04-23 01:28 | 15.91201 | 108.49743 | 7289 ft | 285 kts | 229° |
| 2026-04-23 01:28 | 15.90289 | 108.47945 | 6894 ft | 284 kts | 256° |
| 2026-04-23 01:29 | 15.89994 | 108.45921 | 6542 ft | 282 kts | 264° |
| 2026-04-23 01:29 | 15.89794 | 108.43906 | 6175 ft | 280 kts | 263° |
| 2026-04-23 01:29 | 15.89580 | 108.41927 | 5821 ft | 278 kts | 263° |
| 2026-04-23 01:29 | 15.89349 | 108.39939 | 5471 ft | 276 kts | 263° |
| 2026-04-23 01:30 | 15.89111 | 108.37965 | 5138 ft | 274 kts | 262° |
| 2026-04-23 01:30 | 15.88869 | 108.36023 | 4935 ft | 266 kts | 262° |
| 2026-04-23 01:30 | 15.88636 | 108.34154 | 4794 ft | 256 kts | 262° |
| 2026-04-23 01:30 | 15.88407 | 108.32358 | 4679 ft | 245 kts | 262° |
| 2026-04-23 01:31 | 15.88221 | 108.30636 | 4573 ft | 234 kts | 263° |
| 2026-04-23 01:31 | 15.88052 | 108.28985 | 4372 ft | 227 kts | 263° |
| 2026-04-23 01:31 | 15.87885 | 108.27382 | 4074 ft | 225 kts | 263° |
| 2026-04-23 01:31 | 15.87718 | 108.25780 | 3783 ft | 221 kts | 263° |
| 2026-04-23 01:32 | 15.87588 | 108.24192 | 3455 ft | 219 kts | 271° |
| 2026-04-23 01:32 | 15.88069 | 108.22714 | 3063 ft | 220 kts | 308° |
| 2026-04-23 01:32 | 15.89335 | 108.21826 | 2651 ft | 224 kts | 342° |
| 2026-04-23 01:32 | 15.90854 | 108.21570 | 2360 ft | 216 kts | 355° |
| 2026-04-23 01:33 | 15.92331 | 108.21501 | 2116 ft | 208 kts | 356° |
| 2026-04-23 01:33 | 15.93738 | 108.21376 | 1830 ft | 201 kts | 353° |
| 2026-04-23 01:33 | 15.95087 | 108.21188 | 1560 ft | 191 kts | 352° |
| 2026-04-23 01:33 | 15.96363 | 108.21003 | 1332 ft | 179 kts | 352° |
| 2026-04-23 01:34 | 15.97498 | 108.20838 | 1103 ft | 149 kts | 351° |
| 2026-04-23 01:34 | 15.98487 | 108.20694 | 905 ft | 141 kts | 352° |
| 2026-04-23 01:34 | 15.99464 | 108.20554 | 730 ft | 142 kts | 351° |
| 2026-04-23 01:34 | 16.00433 | 108.20412 | 553 ft | 140 kts | 352° |
| 2026-04-23 01:35 | 16.01404 | 108.20279 | 372 ft | 141 kts | 351° |
| 2026-04-23 01:35 | 16.02364 | 108.20135 | 210 ft | 140 kts | 351° |
| 2026-04-23 01:35 | 16.03342 | 108.19992 | 40 ft | 140 kts | 352° |
| 2026-04-23 01:35 | 16.04138 | 108.19877 | 38 ft | 86 kts | 352° |
| 2026-04-23 01:36 | 16.04603 | 108.19808 | 40 ft | 56 kts | 352° |
| 2026-04-23 01:36 | 16.04953 | 108.19758 | 40 ft | 50 kts | 352° |
| 2026-04-23 01:36 | 16.05298 | 108.19707 | 37 ft | 50 kts | 352° |
| 2026-04-23 01:36 | 16.05588 | 108.19665 | 37 ft | 28 kts | 352° |
| 2026-04-23 01:37 | 16.05706 | 108.19666 | 37 ft | 16 kts | 28° |
| 2026-04-23 01:37 | 16.05736 | 108.19783 | 37 ft | 19 kts | 86° |
| 2026-04-23 01:37 | 16.05749 | 108.19923 | 39 ft | 17 kts | 76° |
| 2026-04-23 01:37 | 16.05763 | 108.20013 | 40 ft | 9 kts | 87° |
| 2026-04-23 01:38 | 16.05710 | 108.20052 | 40 ft | 11 kts | 170° |
| 2026-04-23 01:38 | 16.05659 | 108.20059 | 40 ft | 6 kts | 171° |
| 2026-04-23 01:38 | 16.05621 | 108.20065 | 40 ft | 6 kts | 171° |
| 2026-04-23 01:38 | 16.05591 | 108.20097 | 40 ft | 5 kts | 96° |
| 2026-04-23 01:39 | 16.05595 | 108.20137 | 40 ft | 6 kts | 81° |
| 2026-04-23 01:39 | 16.05596 | 108.20145 | 40 ft | 0 kts | 81° |